sensor_id;sensor_type;location;lat;lon;timestamp;temperature;humidity
10873;DHT22;34586;53.616;10.032;2022-12-24T00:01:13;6.10;99.90
10873;DHT22;34586;53.616;10.032;2022-12-24T00:03:38;6.10;99.90
10873;DHT22;34586;53.616;10.032;2022-12-24T00:06:09;6.10;99.90
10873;DHT22;34586;53.616;10.032;2022-12-24T00:08:37;6.10;99.90
10873;DHT22;34586;53.616;10.032;2022-12-24T00:11:02;6.10;99.90
10873;DHT22;34586;53.616;10.032;2022-12-24T00:13:28;6.10;99.90
10873;DHT22;34586;53.616;10.032;2022-12-24T00:15:53;6.10;99.90
10873;DHT22;34586;53.616;10.032;2022-12-24T00:18:19;6.10;99.90
10873;DHT22;34586;53.616;10.032;2022-12-24T00:20:48;6.10;99.90
10873;DHT22;34586;53.616;10.032;2022-12-24T00:23:15;6.00;99.90
10873;DHT22;34586;53.616;10.032;2022-12-24T00:25:41;6.00;99.90
10873;DHT22;34586;53.616;10.032;2022-12-24T00:28:07;6.10;99.90
10873;DHT22;34586;53.616;10.032;2022-12-24T00:30:32;6.10;99.90
10873;DHT22;34586;53.616;10.032;2022-12-24T00:32:58;6.10;99.90
10873;DHT22;34586;53.616;10.032;2022-12-24T00:35:23;6.10;99.90
10873;DHT22;34586;53.616;10.032;2022-12-24T00:37:49;6.10;99.90
10873;DHT22;34586;53.616;10.032;2022-12-24T00:40:16;6.20;99.90
10873;DHT22;34586;53.616;10.032;2022-12-24T00:42:41;6.10;99.90
10873;DHT22;34586;53.616;10.032;2022-12-24T00:45:08;6.10;99.90
10873;DHT22;34586;53.616;10.032;2022-12-24T00:47:33;6.10;99.90
10873;DHT22;34586;53.616;10.032;2022-12-24T00:49:59;6.10;99.90
10873;DHT22;34586;53.616;10.032;2022-12-24T00:52:24;6.10;99.90
10873;DHT22;34586;53.616;10.032;2022-12-24T00:54:50;6.10;99.90
10873;DHT22;34586;53.616;10.032;2022-12-24T00:57:16;6.00;99.90
10873;DHT22;34586;53.616;10.032;2022-12-24T00:59:41;6.00;99.90
10873;DHT22;34586;53.616;10.032;2022-12-24T01:02:07;6.00;99.90
10873;DHT22;34586;53.616;10.032;2022-12-24T01:04:33;6.00;99.90
10873;DHT22;34586;53.616;10.032;2022-12-24T01:07:17;6.00;99.90
10873;DHT22;34586;53.616;10.032;2022-12-24T01:09:43;6.00;99.90
10873;DHT22;34586;53.616;10.032;2022-12-24T01:12:08;6.00;99.90
10873;DHT22;34586;53.616;10.032;2022-12-24T01:14:36;6.00;99.90
10873;DHT22;34586;53.616;10.032;2022-12-24T01:17:02;6.00;99.90
10873;DHT22;34586;53.616;10.032;2022-12-24T01:19:27;6.00;99.90
10873;DHT22;34586;53.616;10.032;2022-12-24T01:21:53;6.00;99.90
10873;DHT22;34586;53.616;10.032;2022-12-24T01:24:18;6.00;99.90
10873;DHT22;34586;53.616;10.032;2022-12-24T01:26:44;6.10;99.90
10873;DHT22;34586;53.616;10.032;2022-12-24T01:29:10;6.10;99.90
10873;DHT22;34586;53.616;10.032;2022-12-24T01:31:35;6.00;99.90
10873;DHT22;34586;53.616;10.032;2022-12-24T01:34:01;6.10;99.90
10873;DHT22;34586;53.616;10.032;2022-12-24T01:36:27;6.00;99.90
10873;DHT22;34586;53.616;10.032;2022-12-24T01:38:52;5.90;99.90
10873;DHT22;34586;53.616;10.032;2022-12-24T01:41:21;6.00;99.90
10873;DHT22;34586;53.616;10.032;2022-12-24T01:44:26;5.90;99.90
10873;DHT22;34586;53.616;10.032;2022-12-24T01:49:32;6.00;99.90
10873;DHT22;34586;53.616;10.032;2022-12-24T01:52:02;6.00;99.90
10873;DHT22;34586;53.616;10.032;2022-12-24T01:54:37;6.00;99.90
10873;DHT22;34586;53.616;10.032;2022-12-24T01:57:07;6.00;99.90
10873;DHT22;34586;53.616;10.032;2022-12-24T01:59:35;6.00;99.90
10873;DHT22;34586;53.616;10.032;2022-12-24T02:02:02;6.00;99.90
10873;DHT22;34586;53.616;10.032;2022-12-24T02:04:45;6.00;99.90
10873;DHT22;34586;53.616;10.032;2022-12-24T02:07:13;6.00;99.90
10873;DHT22;34586;53.616;10.032;2022-12-24T02:09:39;5.90;99.90
10873;DHT22;34586;53.616;10.032;2022-12-24T02:12:06;6.00;99.90
10873;DHT22;34586;53.616;10.032;2022-12-24T02:14:33;6.00;99.90
10873;DHT22;34586;53.616;10.032;2022-12-24T02:17:33;5.90;99.90
10873;DHT22;34586;53.616;10.032;2022-12-24T02:23:54;5.90;99.90
10873;DHT22;34586;53.616;10.032;2022-12-24T02:33:07;5.90;99.90
10873;DHT22;34586;53.616;10.032;2022-12-24T02:38:38;5.90;99.90
10873;DHT22;34586;53.616;10.032;2022-12-24T02:41:11;5.90;99.90
10873;DHT22;34586;53.616;10.032;2022-12-24T02:43:40;5.90;99.90
10873;DHT22;34586;53.616;10.032;2022-12-24T02:46:16;5.90;99.90
10873;DHT22;34586;53.616;10.032;2022-12-24T02:48:45;5.90;99.90
10873;DHT22;34586;53.616;10.032;2022-12-24T02:51:12;6.00;99.90
10873;DHT22;34586;53.616;10.032;2022-12-24T02:53:38;5.90;99.90
10873;DHT22;34586;53.616;10.032;2022-12-24T02:56:41;5.90;99.90
10873;DHT22;34586;53.616;10.032;2022-12-24T03:02:08;5.90;99.90
10873;DHT22;34586;53.616;10.032;2022-12-24T03:05:04;5.90;99.90
10873;DHT22;34586;53.616;10.032;2022-12-24T03:12:51;5.90;99.90
10873;DHT22;34586;53.616;10.032;2022-12-24T03:15:21;5.90;99.90
10873;DHT22;34586;53.616;10.032;2022-12-24T03:17:49;5.90;99.90
10873;DHT22;34586;53.616;10.032;2022-12-24T03:20:23;5.90;99.90
10873;DHT22;34586;53.616;10.032;2022-12-24T03:22:49;5.90;99.90
10873;DHT22;34586;53.616;10.032;2022-12-24T03:25:15;6.00;99.90
10873;DHT22;34586;53.616;10.032;2022-12-24T03:27:41;5.90;99.90
10873;DHT22;34586;53.616;10.032;2022-12-24T03:30:10;5.90;99.90
10873;DHT22;34586;53.616;10.032;2022-12-24T03:32:37;5.90;99.90
10873;DHT22;34586;53.616;10.032;2022-12-24T03:35:04;5.90;99.90
10873;DHT22;34586;53.616;10.032;2022-12-24T03:37:30;5.90;99.90
10873;DHT22;34586;53.616;10.032;2022-12-24T03:39:55;5.90;99.90
10873;DHT22;34586;53.616;10.032;2022-12-24T03:42:21;5.90;99.90
10873;DHT22;34586;53.616;10.032;2022-12-24T03:44:47;5.80;99.90
10873;DHT22;34586;53.616;10.032;2022-12-24T03:47:12;5.80;99.90
10873;DHT22;34586;53.616;10.032;2022-12-24T03:49:38;5.80;99.90
10873;DHT22;34586;53.616;10.032;2022-12-24T03:52:03;5.80;99.90
10873;DHT22;34586;53.616;10.032;2022-12-24T03:54:29;5.80;99.90
10873;DHT22;34586;53.616;10.032;2022-12-24T03:56:55;5.90;99.90
10873;DHT22;34586;53.616;10.032;2022-12-24T03:59:20;5.90;99.90
10873;DHT22;34586;53.616;10.032;2022-12-24T04:01:46;5.90;99.90
10873;DHT22;34586;53.616;10.032;2022-12-24T04:04:11;5.90;99.90
10873;DHT22;34586;53.616;10.032;2022-12-24T04:06:37;5.90;99.90
10873;DHT22;34586;53.616;10.032;2022-12-24T04:09:03;5.90;99.90
10873;DHT22;34586;53.616;10.032;2022-12-24T04:11:30;5.90;99.90
10873;DHT22;34586;53.616;10.032;2022-12-24T04:13:56;5.90;99.90
10873;DHT22;34586;53.616;10.032;2022-12-24T04:16:22;5.90;99.90
10873;DHT22;34586;53.616;10.032;2022-12-24T04:18:48;5.90;99.90
10873;DHT22;34586;53.616;10.032;2022-12-24T04:21:14;5.80;99.90
10873;DHT22;34586;53.616;10.032;2022-12-24T04:23:41;5.90;99.90
10873;DHT22;34586;53.616;10.032;2022-12-24T04:26:08;5.90;99.90
10873;DHT22;34586;53.616;10.032;2022-12-24T04:28:35;5.90;99.90
10873;DHT22;34586;53.616;10.032;2022-12-24T04:31:03;5.90;99.90
10873;DHT22;34586;53.616;10.032;2022-12-24T04:33:29;5.90;99.90
10873;DHT22;34586;53.616;10.032;2022-12-24T04:35:59;5.80;99.90
10873;DHT22;34586;53.616;10.032;2022-12-24T04:38:25;5.80;99.90
10873;DHT22;34586;53.616;10.032;2022-12-24T04:41:05;5.90;99.90
10873;DHT22;34586;53.616;10.032;2022-12-24T04:43:31;5.90;99.90
10873;DHT22;34586;53.616;10.032;2022-12-24T04:46:05;5.90;99.90
10873;DHT22;34586;53.616;10.032;2022-12-24T04:48:31;5.90;99.90
10873;DHT22;34586;53.616;10.032;2022-12-24T04:50:57;5.90;99.90
10873;DHT22;34586;53.616;10.032;2022-12-24T04:53:25;5.90;99.90
10873;DHT22;34586;53.616;10.032;2022-12-24T04:55:51;5.90;99.90
10873;DHT22;34586;53.616;10.032;2022-12-24T04:58:17;5.90;99.90
10873;DHT22;34586;53.616;10.032;2022-12-24T05:00:42;5.90;99.90
10873;DHT22;34586;53.616;10.032;2022-12-24T05:03:08;5.90;99.90
10873;DHT22;34586;53.616;10.032;2022-12-24T05:05:33;5.90;99.90
10873;DHT22;34586;53.616;10.032;2022-12-24T05:07:59;5.90;99.90
10873;DHT22;34586;53.616;10.032;2022-12-24T05:10:24;5.90;99.90
10873;DHT22;34586;53.616;10.032;2022-12-24T05:12:50;5.90;99.90
10873;DHT22;34586;53.616;10.032;2022-12-24T05:15:15;5.90;99.90
10873;DHT22;34586;53.616;10.032;2022-12-24T05:17:41;5.90;99.90
10873;DHT22;34586;53.616;10.032;2022-12-24T05:20:07;5.90;99.90
10873;DHT22;34586;53.616;10.032;2022-12-24T05:22:32;5.90;99.90
10873;DHT22;34586;53.616;10.032;2022-12-24T05:25:17;5.90;99.90
10873;DHT22;34586;53.616;10.032;2022-12-24T05:28:01;5.90;99.90
10873;DHT22;34586;53.616;10.032;2022-12-24T05:30:27;5.90;99.90
10873;DHT22;34586;53.616;10.032;2022-12-24T05:32:52;5.90;99.90
10873;DHT22;34586;53.616;10.032;2022-12-24T05:35:18;5.90;99.90
10873;DHT22;34586;53.616;10.032;2022-12-24T05:37:43;5.90;99.90
10873;DHT22;34586;53.616;10.032;2022-12-24T05:40:09;5.90;99.90
10873;DHT22;34586;53.616;10.032;2022-12-24T05:42:35;5.80;99.90
10873;DHT22;34586;53.616;10.032;2022-12-24T05:45:00;5.90;99.90
10873;DHT22;34586;53.616;10.032;2022-12-24T05:47:26;5.90;99.90
10873;DHT22;34586;53.616;10.032;2022-12-24T05:49:51;5.80;99.90
10873;DHT22;34586;53.616;10.032;2022-12-24T05:52:17;5.90;99.90
10873;DHT22;34586;53.616;10.032;2022-12-24T05:54:43;5.80;99.90
10873;DHT22;34586;53.616;10.032;2022-12-24T05:57:08;5.80;99.90
10873;DHT22;34586;53.616;10.032;2022-12-24T05:59:34;5.80;99.90
10873;DHT22;34586;53.616;10.032;2022-12-24T06:01:59;5.80;99.90
10873;DHT22;34586;53.616;10.032;2022-12-24T06:04:25;5.80;99.90
10873;DHT22;34586;53.616;10.032;2022-12-24T06:06:51;5.80;99.90
10873;DHT22;34586;53.616;10.032;2022-12-24T06:09:16;5.80;99.90
10873;DHT22;34586;53.616;10.032;2022-12-24T06:11:42;5.90;99.90
10873;DHT22;34586;53.616;10.032;2022-12-24T06:14:08;5.90;99.90
10873;DHT22;34586;53.616;10.032;2022-12-24T06:16:33;5.90;99.90
10873;DHT22;34586;53.616;10.032;2022-12-24T06:18:59;5.80;99.90
10873;DHT22;34586;53.616;10.032;2022-12-24T06:21:24;5.80;99.90
10873;DHT22;34586;53.616;10.032;2022-12-24T06:23:50;5.90;99.90
10873;DHT22;34586;53.616;10.032;2022-12-24T06:26:18;5.90;99.90
10873;DHT22;34586;53.616;10.032;2022-12-24T06:28:44;5.90;99.90
10873;DHT22;34586;53.616;10.032;2022-12-24T06:31:13;5.90;99.90
10873;DHT22;34586;53.616;10.032;2022-12-24T06:33:39;5.90;99.90
10873;DHT22;34586;53.616;10.032;2022-12-24T06:36:10;5.90;99.90
10873;DHT22;34586;53.616;10.032;2022-12-24T06:38:37;5.90;99.90
10873;DHT22;34586;53.616;10.032;2022-12-24T06:41:06;5.90;99.90
10873;DHT22;34586;53.616;10.032;2022-12-24T06:43:32;5.90;99.90
10873;DHT22;34586;53.616;10.032;2022-12-24T06:46:02;5.90;99.90
10873;DHT22;34586;53.616;10.032;2022-12-24T06:48:28;5.90;99.90
10873;DHT22;34586;53.616;10.032;2022-12-24T06:50:53;5.90;99.90
10873;DHT22;34586;53.616;10.032;2022-12-24T06:53:19;5.80;99.90
10873;DHT22;34586;53.616;10.032;2022-12-24T06:55:45;5.80;99.90
10873;DHT22;34586;53.616;10.032;2022-12-24T06:58:10;5.90;99.90
10873;DHT22;34586;53.616;10.032;2022-12-24T07:00:36;5.90;99.90
10873;DHT22;34586;53.616;10.032;2022-12-24T07:03:02;5.90;99.90
10873;DHT22;34586;53.616;10.032;2022-12-24T07:05:28;5.90;99.90
10873;DHT22;34586;53.616;10.032;2022-12-24T07:07:54;5.90;99.90
10873;DHT22;34586;53.616;10.032;2022-12-24T07:10:20;5.90;99.90
10873;DHT22;34586;53.616;10.032;2022-12-24T07:12:46;5.90;99.90
10873;DHT22;34586;53.616;10.032;2022-12-24T07:15:13;5.90;99.90
10873;DHT22;34586;53.616;10.032;2022-12-24T07:17:39;5.90;99.90
10873;DHT22;34586;53.616;10.032;2022-12-24T07:20:06;5.90;99.90
10873;DHT22;34586;53.616;10.032;2022-12-24T07:22:32;5.80;99.90
10873;DHT22;34586;53.616;10.032;2022-12-24T07:24:58;5.90;99.90
10873;DHT22;34586;53.616;10.032;2022-12-24T07:27:24;5.90;99.90
10873;DHT22;34586;53.616;10.032;2022-12-24T07:29:49;5.90;99.90
10873;DHT22;34586;53.616;10.032;2022-12-24T07:32:15;5.90;99.90
10873;DHT22;34586;53.616;10.032;2022-12-24T07:34:40;5.80;99.90
10873;DHT22;34586;53.616;10.032;2022-12-24T07:37:06;5.80;99.90
10873;DHT22;34586;53.616;10.032;2022-12-24T07:39:32;5.90;99.90
10873;DHT22;34586;53.616;10.032;2022-12-24T07:41:58;5.90;99.90
10873;DHT22;34586;53.616;10.032;2022-12-24T07:44:23;5.80;99.90
10873;DHT22;34586;53.616;10.032;2022-12-24T07:46:49;5.80;99.90
10873;DHT22;34586;53.616;10.032;2022-12-24T07:49:15;5.80;99.90
10873;DHT22;34586;53.616;10.032;2022-12-24T07:51:40;5.80;99.90
10873;DHT22;34586;53.616;10.032;2022-12-24T07:54:06;5.70;99.90
10873;DHT22;34586;53.616;10.032;2022-12-24T07:56:32;5.70;99.90
10873;DHT22;34586;53.616;10.032;2022-12-24T07:58:58;5.70;99.90
10873;DHT22;34586;53.616;10.032;2022-12-24T08:01:24;5.70;99.90
10873;DHT22;34586;53.616;10.032;2022-12-24T08:03:49;5.80;99.90
10873;DHT22;34586;53.616;10.032;2022-12-24T08:06:20;5.80;99.90
10873;DHT22;34586;53.616;10.032;2022-12-24T08:08:45;5.80;99.90
10873;DHT22;34586;53.616;10.032;2022-12-24T08:11:11;5.70;99.90
10873;DHT22;34586;53.616;10.032;2022-12-24T08:13:37;5.80;99.90
10873;DHT22;34586;53.616;10.032;2022-12-24T08:16:03;5.80;99.90
10873;DHT22;34586;53.616;10.032;2022-12-24T08:18:29;5.70;99.90
10873;DHT22;34586;53.616;10.032;2022-12-24T08:20:54;5.70;99.90
10873;DHT22;34586;53.616;10.032;2022-12-24T08:23:20;5.70;99.90
10873;DHT22;34586;53.616;10.032;2022-12-24T08:25:47;5.70;99.90
10873;DHT22;34586;53.616;10.032;2022-12-24T08:28:14;5.80;99.90
10873;DHT22;34586;53.616;10.032;2022-12-24T08:30:41;5.80;99.90
10873;DHT22;34586;53.616;10.032;2022-12-24T08:33:07;5.80;99.90
10873;DHT22;34586;53.616;10.032;2022-12-24T08:35:32;5.80;99.90
10873;DHT22;34586;53.616;10.032;2022-12-24T08:37:58;5.80;99.90
10873;DHT22;34586;53.616;10.032;2022-12-24T08:40:24;5.90;99.90
10873;DHT22;34586;53.616;10.032;2022-12-24T08:42:49;5.80;99.90
10873;DHT22;34586;53.616;10.032;2022-12-24T08:45:15;5.80;99.90
10873;DHT22;34586;53.616;10.032;2022-12-24T08:47:41;5.90;99.90
10873;DHT22;34586;53.616;10.032;2022-12-24T08:50:07;5.90;99.90
10873;DHT22;34586;53.616;10.032;2022-12-24T08:52:33;5.90;99.90
10873;DHT22;34586;53.616;10.032;2022-12-24T08:54:58;5.90;99.90
10873;DHT22;34586;53.616;10.032;2022-12-24T08:57:24;5.90;99.90
10873;DHT22;34586;53.616;10.032;2022-12-24T08:59:50;6.00;99.90
10873;DHT22;34586;53.616;10.032;2022-12-24T09:02:15;6.00;99.90
10873;DHT22;34586;53.616;10.032;2022-12-24T09:04:41;5.90;99.90
10873;DHT22;34586;53.616;10.032;2022-12-24T09:07:09;5.90;99.90
10873;DHT22;34586;53.616;10.032;2022-12-24T09:09:35;6.00;99.90
10873;DHT22;34586;53.616;10.032;2022-12-24T09:12:03;5.90;99.90
10873;DHT22;34586;53.616;10.032;2022-12-24T09:14:28;6.00;99.90
10873;DHT22;34586;53.616;10.032;2022-12-24T09:16:54;6.00;99.90
10873;DHT22;34586;53.616;10.032;2022-12-24T09:19:19;6.00;99.90
10873;DHT22;34586;53.616;10.032;2022-12-24T09:21:45;6.00;99.90
10873;DHT22;34586;53.616;10.032;2022-12-24T09:24:10;6.00;99.90
10873;DHT22;34586;53.616;10.032;2022-12-24T09:26:36;6.00;99.90
10873;DHT22;34586;53.616;10.032;2022-12-24T09:29:02;6.00;99.90
10873;DHT22;34586;53.616;10.032;2022-12-24T09:31:28;6.00;99.90
10873;DHT22;34586;53.616;10.032;2022-12-24T09:33:54;6.00;99.90
10873;DHT22;34586;53.616;10.032;2022-12-24T09:36:20;6.10;99.90
10873;DHT22;34586;53.616;10.032;2022-12-24T09:38:46;6.00;99.90
10873;DHT22;34586;53.616;10.032;2022-12-24T09:41:14;6.10;99.90
10873;DHT22;34586;53.616;10.032;2022-12-24T09:43:44;6.10;99.90
10873;DHT22;34586;53.616;10.032;2022-12-24T09:46:27;6.10;99.90
10873;DHT22;34586;53.616;10.032;2022-12-24T09:48:57;6.10;99.90
10873;DHT22;34586;53.616;10.032;2022-12-24T09:56:43;6.20;99.90
10873;DHT22;34586;53.616;10.032;2022-12-24T09:59:19;6.20;99.90
10873;DHT22;34586;53.616;10.032;2022-12-24T10:01:46;6.30;99.90
10873;DHT22;34586;53.616;10.032;2022-12-24T10:04:15;6.40;99.90
10873;DHT22;34586;53.616;10.032;2022-12-24T10:09:37;6.40;99.90
10873;DHT22;34586;53.616;10.032;2022-12-24T10:12:15;6.50;99.90
10873;DHT22;34586;53.616;10.032;2022-12-24T10:20:58;6.60;99.90
10873;DHT22;34586;53.616;10.032;2022-12-24T10:23:36;6.70;99.90
10873;DHT22;34586;53.616;10.032;2022-12-24T10:26:22;6.80;99.90
10873;DHT22;34586;53.616;10.032;2022-12-24T10:29:46;6.80;99.90
10873;DHT22;34586;53.616;10.032;2022-12-24T10:34:39;6.70;99.90
10873;DHT22;34586;53.616;10.032;2022-12-24T10:37:06;6.60;99.90
10873;DHT22;34586;53.616;10.032;2022-12-24T10:39:36;6.70;99.90
10873;DHT22;34586;53.616;10.032;2022-12-24T10:42:03;6.70;99.90
10873;DHT22;34586;53.616;10.032;2022-12-24T10:44:31;6.80;99.90
10873;DHT22;34586;53.616;10.032;2022-12-24T10:46:57;6.80;99.90
10873;DHT22;34586;53.616;10.032;2022-12-24T10:51:59;6.80;99.90
10873;DHT22;34586;53.616;10.032;2022-12-24T10:54:28;6.80;99.90
10873;DHT22;34586;53.616;10.032;2022-12-24T10:56:59;6.70;99.90
10873;DHT22;34586;53.616;10.032;2022-12-24T11:01:56;6.60;99.90
10873;DHT22;34586;53.616;10.032;2022-12-24T11:04:25;6.60;99.90
10873;DHT22;34586;53.616;10.032;2022-12-24T11:09:30;6.80;99.90
10873;DHT22;34586;53.616;10.032;2022-12-24T11:11:58;6.80;99.90
10873;DHT22;34586;53.616;10.032;2022-12-24T11:14:29;6.80;99.90
10873;DHT22;34586;53.616;10.032;2022-12-24T11:16:57;6.90;99.90
10873;DHT22;34586;53.616;10.032;2022-12-24T11:19:49;6.90;99.90
10873;DHT22;34586;53.616;10.032;2022-12-24T11:22:20;7.00;99.90
10873;DHT22;34586;53.616;10.032;2022-12-24T11:27:43;7.10;99.90
10873;DHT22;34586;53.616;10.032;2022-12-24T11:32:47;7.00;99.90
10873;DHT22;34586;53.616;10.032;2022-12-24T11:35:19;7.00;99.90
10873;DHT22;34586;53.616;10.032;2022-12-24T11:40:30;7.10;99.90
10873;DHT22;34586;53.616;10.032;2022-12-24T11:43:02;7.10;99.90
10873;DHT22;34586;53.616;10.032;2022-12-24T11:45:30;7.10;99.90
10873;DHT22;34586;53.616;10.032;2022-12-24T11:47:57;7.20;99.90
10873;DHT22;34586;53.616;10.032;2022-12-24T12:04:11;7.10;99.90
10873;DHT22;34586;53.616;10.032;2022-12-24T12:06:47;7.10;99.90
10873;DHT22;34586;53.616;10.032;2022-12-24T12:09:21;7.20;99.90
10873;DHT22;34586;53.616;10.032;2022-12-24T12:11:53;7.20;99.90
10873;DHT22;34586;53.616;10.032;2022-12-24T12:14:26;7.20;99.90
10873;DHT22;34586;53.616;10.032;2022-12-24T12:19:27;7.20;99.90
10873;DHT22;34586;53.616;10.032;2022-12-24T12:21:56;7.30;99.90
10873;DHT22;34586;53.616;10.032;2022-12-24T12:24:35;7.30;99.90
10873;DHT22;34586;53.616;10.032;2022-12-24T12:29:57;7.50;99.90
10873;DHT22;34586;53.616;10.032;2022-12-24T12:33:24;7.60;99.90
10873;DHT22;34586;53.616;10.032;2022-12-24T12:35:25;7.80;99.90
10873;DHT22;34586;53.616;10.032;2022-12-24T12:38:25;7.90;99.90
10873;DHT22;34586;53.616;10.032;2022-12-24T12:46:47;7.90;99.90
10873;DHT22;34586;53.616;10.032;2022-12-24T12:54:49;8.00;99.90
10873;DHT22;34586;53.616;10.032;2022-12-24T12:57:18;8.00;99.90
10873;DHT22;34586;53.616;10.032;2022-12-24T12:59:52;7.90;99.90
10873;DHT22;34586;53.616;10.032;2022-12-24T13:21:43;8.10;99.90
10873;DHT22;34586;53.616;10.032;2022-12-24T13:37:41;8.30;99.90
10873;DHT22;34586;53.616;10.032;2022-12-24T13:43:05;8.30;99.90
10873;DHT22;34586;53.616;10.032;2022-12-24T13:50:37;8.00;99.90
10873;DHT22;34586;53.616;10.032;2022-12-24T13:53:05;7.90;99.90
10873;DHT22;34586;53.616;10.032;2022-12-24T13:55:32;7.90;99.90
10873;DHT22;34586;53.616;10.032;2022-12-24T13:58:03;7.90;99.90
10873;DHT22;34586;53.616;10.032;2022-12-24T14:00:38;7.90;99.90
10873;DHT22;34586;53.616;10.032;2022-12-24T14:08:10;8.10;99.90
10873;DHT22;34586;53.616;10.032;2022-12-24T14:10:44;8.10;99.90
10873;DHT22;34586;53.616;10.032;2022-12-24T14:18:41;8.20;99.90
10873;DHT22;34586;53.616;10.032;2022-12-24T14:21:20;8.20;99.90
10873;DHT22;34586;53.616;10.032;2022-12-24T14:24:04;8.20;99.90
10873;DHT22;34586;53.616;10.032;2022-12-24T14:26:44;8.20;99.90
10873;DHT22;34586;53.616;10.032;2022-12-24T14:29:23;8.20;99.90
10873;DHT22;34586;53.616;10.032;2022-12-24T14:31:56;8.20;99.90
10873;DHT22;34586;53.616;10.032;2022-12-24T14:34:21;8.20;99.90
10873;DHT22;34586;53.616;10.032;2022-12-24T14:36:50;8.20;99.90
10873;DHT22;34586;53.616;10.032;2022-12-24T14:39:35;8.20;99.90
10873;DHT22;34586;53.616;10.032;2022-12-24T14:45:02;8.20;99.90
10873;DHT22;34586;53.616;10.032;2022-12-24T14:47:43;8.20;99.90
10873;DHT22;34586;53.616;10.032;2022-12-24T14:50:37;8.20;99.90
10873;DHT22;34586;53.616;10.032;2022-12-24T14:55:41;8.30;99.90
10873;DHT22;34586;53.616;10.032;2022-12-24T14:58:32;8.20;99.90
10873;DHT22;34586;53.616;10.032;2022-12-24T15:01:19;8.20;99.90
10873;DHT22;34586;53.616;10.032;2022-12-24T15:03:45;8.20;99.90
10873;DHT22;34586;53.616;10.032;2022-12-24T15:06:12;8.20;99.90
10873;DHT22;34586;53.616;10.032;2022-12-24T15:08:47;8.20;99.90
10873;DHT22;34586;53.616;10.032;2022-12-24T15:11:18;8.20;99.90
10873;DHT22;34586;53.616;10.032;2022-12-24T15:13:55;8.10;99.90
10873;DHT22;34586;53.616;10.032;2022-12-24T15:16:26;8.10;99.90
10873;DHT22;34586;53.616;10.032;2022-12-24T15:19:00;8.00;99.90
10873;DHT22;34586;53.616;10.032;2022-12-24T15:21:36;7.90;99.90
10873;DHT22;34586;53.616;10.032;2022-12-24T15:24:23;7.90;99.90
10873;DHT22;34586;53.616;10.032;2022-12-24T15:26:50;7.90;99.90
10873;DHT22;34586;53.616;10.032;2022-12-24T15:29:28;8.00;99.90
10873;DHT22;34586;53.616;10.032;2022-12-24T15:32:01;8.00;99.90
10873;DHT22;34586;53.616;10.032;2022-12-24T15:34:38;8.00;99.90
10873;DHT22;34586;53.616;10.032;2022-12-24T15:37:11;8.00;99.90
10873;DHT22;34586;53.616;10.032;2022-12-24T15:39:39;8.00;99.90
10873;DHT22;34586;53.616;10.032;2022-12-24T15:42:06;7.90;99.90
10873;DHT22;34586;53.616;10.032;2022-12-24T15:44:48;8.00;99.90
10873;DHT22;34586;53.616;10.032;2022-12-24T15:47:27;6.50;99.90
10873;DHT22;34586;53.616;10.032;2022-12-24T15:49:53;8.10;99.90
10873;DHT22;34586;53.616;10.032;2022-12-24T15:52:21;8.10;99.90
10873;DHT22;34586;53.616;10.032;2022-12-24T15:54:49;8.10;99.90
10873;DHT22;34586;53.616;10.032;2022-12-24T15:57:29;8.10;99.90
10873;DHT22;34586;53.616;10.032;2022-12-24T15:59:56;8.10;99.90
10873;DHT22;34586;53.616;10.032;2022-12-24T16:02:38;8.20;99.90
10873;DHT22;34586;53.616;10.032;2022-12-24T16:10:41;8.30;99.90
10873;DHT22;34586;53.616;10.032;2022-12-24T16:13:50;8.30;99.90
10873;DHT22;34586;53.616;10.032;2022-12-24T16:16:13;8.40;99.90
10873;DHT22;34586;53.616;10.032;2022-12-24T16:18:51;8.40;99.90
10873;DHT22;34586;53.616;10.032;2022-12-24T16:23:56;8.40;99.90
10873;DHT22;34586;53.616;10.032;2022-12-24T16:26:22;8.50;99.90
10873;DHT22;34586;53.616;10.032;2022-12-24T16:28:48;8.60;99.90
10873;DHT22;34586;53.616;10.032;2022-12-24T16:31:27;8.50;99.90
10873;DHT22;34586;53.616;10.032;2022-12-24T16:33:54;8.60;99.90
10873;DHT22;34586;53.616;10.032;2022-12-24T16:36:21;8.60;99.90
10873;DHT22;34586;53.616;10.032;2022-12-24T16:38:47;8.70;99.90
10873;DHT22;34586;53.616;10.032;2022-12-24T16:41:31;8.70;99.90
10873;DHT22;34586;53.616;10.032;2022-12-24T16:44:16;8.70;99.90
10873;DHT22;34586;53.616;10.032;2022-12-24T16:46:42;8.70;99.90
10873;DHT22;34586;53.616;10.032;2022-12-24T16:49:20;8.60;99.90
10873;DHT22;34586;53.616;10.032;2022-12-24T16:51:46;8.60;99.90
10873;DHT22;34586;53.616;10.032;2022-12-24T16:54:13;8.60;99.90
10873;DHT22;34586;53.616;10.032;2022-12-24T16:56:40;8.70;99.90
10873;DHT22;34586;53.616;10.032;2022-12-24T16:59:10;8.70;99.90
10873;DHT22;34586;53.616;10.032;2022-12-24T17:01:39;8.70;99.90
10873;DHT22;34586;53.616;10.032;2022-12-24T17:04:05;8.70;99.90
10873;DHT22;34586;53.616;10.032;2022-12-24T17:06:30;8.70;99.90
10873;DHT22;34586;53.616;10.032;2022-12-24T17:08:56;8.70;99.90
10873;DHT22;34586;53.616;10.032;2022-12-24T17:11:24;8.70;99.90
10873;DHT22;34586;53.616;10.032;2022-12-24T17:13:50;8.70;99.90
10873;DHT22;34586;53.616;10.032;2022-12-24T17:16:16;8.80;99.90
10873;DHT22;34586;53.616;10.032;2022-12-24T17:18:41;8.70;99.90
10873;DHT22;34586;53.616;10.032;2022-12-24T17:21:07;8.70;99.90
10873;DHT22;34586;53.616;10.032;2022-12-24T17:23:35;8.70;99.90
10873;DHT22;34586;53.616;10.032;2022-12-24T17:26:00;8.70;99.90
10873;DHT22;34586;53.616;10.032;2022-12-24T17:28:26;8.70;99.90
10873;DHT22;34586;53.616;10.032;2022-12-24T17:30:51;8.70;99.90
10873;DHT22;34586;53.616;10.032;2022-12-24T17:33:17;8.80;99.90
10873;DHT22;34586;53.616;10.032;2022-12-24T17:35:43;8.80;99.90
10873;DHT22;34586;53.616;10.032;2022-12-24T17:38:10;8.90;99.90
10873;DHT22;34586;53.616;10.032;2022-12-24T17:40:36;8.80;99.90
10873;DHT22;34586;53.616;10.032;2022-12-24T17:43:01;8.90;99.90
10873;DHT22;34586;53.616;10.032;2022-12-24T17:45:27;8.90;99.90
10873;DHT22;34586;53.616;10.032;2022-12-24T17:47:52;8.90;99.90
10873;DHT22;34586;53.616;10.032;2022-12-24T17:50:18;9.00;99.90
10873;DHT22;34586;53.616;10.032;2022-12-24T17:52:44;8.90;99.90
10873;DHT22;34586;53.616;10.032;2022-12-24T17:55:09;8.90;99.90
10873;DHT22;34586;53.616;10.032;2022-12-24T17:57:35;8.90;99.90
10873;DHT22;34586;53.616;10.032;2022-12-24T18:00:00;8.80;99.90
10873;DHT22;34586;53.616;10.032;2022-12-24T18:02:26;8.90;99.90
10873;DHT22;34586;53.616;10.032;2022-12-24T18:04:52;8.90;99.90
10873;DHT22;34586;53.616;10.032;2022-12-24T18:07:17;8.90;99.90
10873;DHT22;34586;53.616;10.032;2022-12-24T18:09:43;8.80;99.90
10873;DHT22;34586;53.616;10.032;2022-12-24T18:12:10;8.80;99.90
10873;DHT22;34586;53.616;10.032;2022-12-24T18:14:36;8.90;99.90